Time;durP1;ratioP1;P1;durP2;ratioP2;P2;SDS_P1;SDS_P2;PMS_P1;PMS_P2;Temp;Humidity;BMP_temperature;BMP_pressure;BME280_temperature;BME280_humidity;BME280_pressure;Samples;Min_cycle;Max_cycle;Signal;HPM_P1;HPM_P2
2022/03/11 00:05:23;;;;;;;21.50;11.93;;;5.10;99.90;;;;;;11871165;29;20059;-82
2022/03/11 00:11:25;;;;;;;20.63;10.85;;;5.00;99.90;;;;;;11868417;29;20051;-82
2022/03/11 00:17:27;;;;;;;16.98;9.65;;;4.90;99.90;;;;;;11868718;29;20479;-82
2022/03/11 00:23:29;;;;;;;19.20;11.65;;;4.80;99.90;;;;;;11868855;29;20053;-82
2022/03/11 00:29:31;;;;;;;21.17;11.07;;;4.70;99.90;;;;;;11874385;29;20718;-82
2022/03/11 00:35:34;;;;;;;18.90;11.23;;;4.60;99.90;;;;;;11887064;29;20059;-82
2022/03/11 00:41:36;;;;;;;20.02;11.43;;;4.40;99.90;;;;;;11891894;29;20112;-83
2022/03/11 00:47:38;;;;;;;22.52;12.30;;;4.30;99.90;;;;;;11879844;29;20066;-82
2022/03/11 00:53:41;;;;;;;20.67;11.65;;;4.20;99.90;;;;;;11875358;29;20081;-82
2022/03/11 00:59:43;;;;;;;22.85;12.25;;;4.20;99.90;;;;;;11880422;29;20119;-82
2022/03/11 01:05:45;;;;;;;20.70;12.30;;;4.20;99.90;;;;;;11891569;29;20055;-82
2022/03/11 01:11:47;;;;;;;21.60;12.00;;;4.00;99.90;;;;;;11876902;29;20059;-82
2022/03/11 01:17:48;;;;;;;20.00;11.90;;;3.80;99.90;;;;;;11874685;29;20549;-82
2022/03/11 01:23:50;;;;;;;21.98;12.30;;;3.90;99.90;;;;;;11874911;29;20139;-82
2022/03/11 01:29:52;;;;;;;23.98;12.73;;;3.60;99.90;;;;;;11890627;29;20473;-82
2022/03/11 01:35:54;;;;;;;21.60;11.95;;;3.50;99.90;;;;;;11881916;29;20154;-82
2022/03/11 01:41:56;;;;;;;25.20;12.75;;;3.30;99.90;;;;;;11870414;29;20081;-82
2022/03/11 01:47:58;;;;;;;26.05;13.93;;;3.20;99.90;;;;;;11874441;29;22551;-82
2022/03/11 01:54:00;;;;;;;25.05;13.60;;;3.10;99.90;;;;;;11876567;29;20499;-82
2022/03/11 02:00:05;;;;;;;26.52;13.27;;;3.10;99.90;;;;;;11874525;29;20162;-82
2022/03/11 02:06:09;;;;;;;22.77;12.60;;;3.20;99.90;;;;;;11872154;29;20065;-82
2022/03/11 02:12:10;;;;;;;24.92;13.05;;;3.20;99.90;;;;;;11872732;29;20130;-82
2022/03/11 02:18:12;;;;;;;23.25;12.98;;;3.20;99.90;;;;;;11871119;29;20051;-81
2022/03/11 02:24:15;;;;;;;25.42;14.55;;;3.20;99.90;;;;;;11883588;29;20043;-81
2022/03/11 02:30:21;;;;;;;21.27;12.50;;;3.20;99.90;;;;;;11873104;29;20054;-82
2022/03/11 02:36:23;;;;;;;23.10;13.07;;;3.10;99.90;;;;;;11874028;29;20133;-82
2022/03/11 02:42:24;;;;;;;22.70;12.95;;;3.00;99.90;;;;;;11876024;29;20055;-81
2022/03/11 02:48:27;;;;;;;22.55;13.57;;;3.10;99.90;;;;;;11870691;29;20147;-82
2022/03/11 02:54:29;;;;;;;23.77;14.18;;;2.90;99.90;;;;;;11870108;29;20058;-82
2022/03/11 03:00:30;;;;;;;25.45;13.70;;;2.90;99.90;;;;;;11868928;29;20099;-82
2022/03/11 03:06:32;;;;;;;24.38;13.30;;;2.90;99.90;;;;;;11870454;29;20071;-81
2022/03/11 03:12:35;;;;;;;21.98;13.32;;;2.80;99.90;;;;;;11863733;29;20059;-81
2022/03/11 03:18:36;;;;;;;23.17;13.52;;;2.80;99.90;;;;;;11881582;29;20582;-82
2022/03/11 03:24:38;;;;;;;23.30;13.40;;;2.80;99.90;;;;;;11866244;29;20051;-82
2022/03/11 03:30:40;;;;;;;22.60;12.88;;;2.70;99.90;;;;;;11870891;29;20141;-82
2022/03/11 03:36:42;;;;;;;25.35;13.40;;;2.70;99.90;;;;;;11870720;29;20058;-82
2022/03/11 03:42:47;;;;;;;25.95;14.15;;;2.70;99.90;;;;;;11883457;29;20059;-81
2022/03/11 03:48:49;;;;;;;23.48;12.85;;;2.60;99.90;;;;;;11879790;29;20150;-82
2022/03/11 03:54:51;;;;;;;24.85;13.35;;;2.60;99.90;;;;;;11888462;29;20100;-82
2022/03/11 04:00:52;;;;;;;22.02;13.25;;;2.50;99.90;;;;;;11887106;29;20054;-82
2022/03/11 04:06:54;;;;;;;22.52;13.25;;;2.50;99.90;;;;;;11892898;29;20055;-82
2022/03/11 04:12:57;;;;;;;23.80;12.32;;;2.40;99.90;;;;;;11898057;29;20050;-82
2022/03/11 04:18:59;;;;;;;22.02;13.35;;;2.40;99.90;;;;;;11889867;29;20074;-82
2022/03/11 04:25:01;;;;;;;23.40;13.40;;;2.30;99.90;;;;;;11897494;29;20188;-82
2022/03/11 04:31:12;;;;;;;23.08;12.30;;;2.30;99.90;;;;;;11876899;29;20089;-81
2022/03/11 04:37:14;;;;;;;25.23;13.02;;;2.30;99.90;;;;;;11880214;29;20141;-81
2022/03/11 04:43:16;;;;;;;25.10;13.95;;;2.20;99.90;;;;;;11876937;29;20450;-81
2022/03/11 04:49:19;;;;;;;20.98;11.93;;;2.10;99.90;;;;;;11881414;29;20055;-82
2022/03/11 04:55:22;;;;;;;22.00;12.30;;;2.10;99.90;;;;;;11882777;29;20059;-82
2022/03/11 05:01:24;;;;;;;23.95;11.45;;;2.10;99.90;;;;;;11892725;29;20567;-82
2022/03/11 05:07:26;;;;;;;20.98;12.45;;;2.20;99.90;;;;;;11879895;29;20539;-81
2022/03/11 05:13:28;;;;;;;23.80;13.40;;;2.30;99.90;;;;;;11888986;29;20548;-81
2022/03/11 05:19:30;;;;;;;21.90;12.48;;;1.80;99.90;;;;;;11878156;29;20051;-81
2022/03/11 05:25:32;;;;;;;21.65;12.35;;;1.70;99.90;;;;;;11873902;29;20051;-82
2022/03/11 05:31:34;;;;;;;24.23;12.45;;;1.50;99.90;;;;;;11883749;29;20046;-81
2022/03/11 05:37:36;;;;;;;24.13;12.82;;;1.50;99.90;;;;;;11873260;29;20436;-81
2022/03/11 05:43:38;;;;;;;26.33;13.57;;;1.50;99.90;;;;;;11875841;29;20054;-81
2022/03/11 05:49:40;;;;;;;28.55;14.07;;;1.50;99.90;;;;;;11872787;29;20059;-82
2022/03/11 05:55:42;;;;;;;23.52;12.27;;;1.40;99.90;;;;;;11873698;29;20165;-82
2022/03/11 06:01:44;;;;;;;23.33;12.95;;;1.20;99.90;;;;;;11892969;29;20051;-82
2022/03/11 06:07:46;;;;;;;25.83;12.50;;;1.20;99.90;;;;;;11874529;29;20138;-82
2022/03/11 06:13:48;;;;;;;24.88;13.48;;;1.10;99.90;;;;;;11880221;29;20100;-82
2022/03/11 06:19:49;;;;;;;23.48;14.18;;;0.90;99.90;;;;;;11869161;29;20084;-82
2022/03/11 06:25:52;;;;;;;24.52;13.73;;;0.90;99.90;;;;;;11877183;29;20660;-82
2022/03/11 06:31:54;;;;;;;22.58;13.57;;;1.00;99.90;;;;;;11878270;29;20099;-82
2022/03/11 06:37:55;;;;;;;25.77;13.23;;;1.30;99.90;;;;;;11872723;29;20066;-81
2022/03/11 06:43:57;;;;;;;23.83;13.50;;;1.40;99.90;;;;;;11872494;29;20136;-82
2022/03/11 06:50:00;;;;;;;27.55;13.48;;;1.70;99.90;;;;;;11870554;29;20059;-81
2022/03/11 06:56:02;;;;;;;22.52;12.32;;;1.70;99.90;;;;;;11865302;29;20084;-81
2022/03/11 07:02:05;;;;;;;19.45;10.65;;;1.70;99.90;;;;;;11869186;29;20055;-82
2022/03/11 07:08:10;;;;;;;14.30;8.02;;;1.90;99.90;;;;;;11871347;29;20063;-82
2022/03/11 07:14:12;;;;;;;13.38;7.22;;;2.80;99.90;;;;;;11886813;29;20434;-81
2022/03/11 07:20:14;;;;;;;12.80;7.65;;;3.50;99.90;;;;;;11867924;29;20047;-82
2022/03/11 07:26:15;;;;;;;16.08;7.45;;;3.80;99.90;;;;;;11872000;29;20055;-82
2022/03/11 07:32:17;;;;;;;14.70;7.72;;;4.00;99.90;;;;;;11870185;29;20101;-82
2022/03/11 07:38:19;;;;;;;15.40;7.45;;;4.20;99.90;;;;;;11872685;29;20073;-82
2022/03/11 07:44:21;;;;;;;15.38;7.47;;;4.40;99.90;;;;;;11891353;29;20059;-82
2022/03/11 07:50:32;;;;;;;13.52;7.20;;;4.50;99.90;;;;;;11878993;29;20046;-82
2022/03/11 07:56:34;;;;;;;12.80;6.80;;;4.70;99.90;;;;;;11882232;29;20055;-81
2022/03/11 08:02:36;;;;;;;13.20;6.97;;;4.90;99.90;;;;;;11888337;29;20600;-82
2022/03/11 08:08:39;;;;;;;13.48;7.72;;;5.10;99.90;;;;;;11881716;29;20059;-82
2022/03/11 08:14:40;;;;;;;12.98;7.72;;;5.20;99.90;;;;;;11882856;29;20591;-81
2022/03/11 08:20:42;;;;;;;11.15;7.05;;;5.60;99.90;;;;;;11885884;29;20485;-83
2022/03/11 08:26:44;;;;;;;12.65;7.00;;;5.60;99.90;;;;;;11869042;29;20069;-82
2022/03/11 08:32:48;;;;;;;11.80;6.82;;;5.60;99.90;;;;;;11877724;29;20569;-83
2022/03/11 08:38:51;;;;;;;10.82;6.30;;;5.90;99.90;;;;;;11876286;29;20059;-82
2022/03/11 08:44:52;;;;;;;12.40;6.40;;;6.00;99.90;;;;;;11879686;29;20450;-83
2022/03/11 08:50:54;;;;;;;9.65;5.82;;;6.30;99.90;;;;;;11887532;29;20071;-82
2022/03/11 08:56:56;;;;;;;10.48;5.88;;;6.50;99.90;;;;;;11875934;29;20478;-83
2022/03/11 09:02:58;;;;;;;10.70;5.57;;;6.70;99.90;;;;;;11887630;29;20055;-83
2022/03/11 09:09:04;;;;;;;12.00;5.80;;;6.80;99.90;;;;;;11893598;29;20042;-82
2022/03/11 09:15:07;;;;;;;8.63;5.30;;;7.00;99.90;;;;;;11873176;29;20097;-82
2022/03/11 09:21:09;;;;;;;8.48;5.03;;;7.30;99.90;;;;;;11877586;29;20061;-83
2022/03/11 09:27:12;;;;;;;8.18;4.70;;;7.30;99.90;;;;;;11903373;29;20063;-82
2022/03/11 09:33:14;;;;;;;7.68;4.75;;;7.60;99.90;;;;;;11879747;29;20520;-83
2022/03/11 09:39:15;;;;;;;8.27;4.68;;;7.70;99.90;;;;;;11875857;29;20089;-83
2022/03/11 09:45:19;;;;;;;10.25;5.60;;;7.70;99.90;;;;;;11878201;29;20104;-83
2022/03/11 09:51:23;;;;;;;9.98;5.40;;;7.70;99.90;;;;;;11894497;29;20066;-84
2022/03/11 09:57:27;;;;;;;8.77;4.90;;;8.10;99.90;;;;;;11888503;29;20055;-83
2022/03/11 10:03:30;;;;;;;6.97;4.30;;;8.00;99.90;;;;;;11892839;29;20063;-83
2022/03/11 10:09:33;;;;;;;6.57;4.30;;;8.20;99.90;;;;;;11885383;29;20593;-84
2022/03/11 10:15:36;;;;;;;10.45;4.18;;;8.60;99.90;;;;;;11883971;29;20174;-83
2022/03/11 10:21:41;;;;;;;6.18;3.95;;;8.70;99.90;;;;;;11873734;29;20066;-83
2022/03/11 10:27:55;;;;;;;;;;;8.90;99.90;;;;;;11883652;29;20047;-83
2022/03/11 10:34:13;;;;;;;8.98;3.70;;;9.10;99.90;;;;;;11888421;29;20035;-83
2022/03/11 10:40:16;;;;;;;10.18;3.92;;;9.50;99.90;;;;;;11873349;29;20090;-83
2022/03/11 10:46:25;;;;;;;6.00;3.55;;;9.70;99.90;;;;;;11872633;29;20051;-83
2022/03/11 10:52:41;;;;;;;7.18;3.80;;;9.30;98.40;;;;;;11868762;29;20475;-84
2022/03/11 10:58:43;;;;;;;5.63;3.45;;;9.40;98.20;;;;;;11873688;29;20107;-84
2022/03/11 11:04:46;;;;;;;6.40;3.92;;;9.40;96.30;;;;;;11889660;29;20061;-84
2022/03/11 11:10:49;;;;;;;8.15;4.20;;;9.50;95.90;;;;;;11871565;29;20142;-84
2022/03/11 11:16:55;;;;;;;7.00;3.95;;;9.50;95.70;;;;;;11880783;29;20066;-84
2022/03/11 11:23:01;;;;;;;9.25;3.30;;;9.70;96.00;;;;;;11882815;29;20055;-83
2022/03/11 11:29:03;;;;;;;6.63;3.78;;;9.80;95.50;;;;;;11886081;29;20137;-84
2022/03/11 11:35:24;;;;;;;9.27;4.20;;;10.00;95.00;;;;;;11875941;29;20059;-83
2022/03/11 11:41:27;;;;;;;8.43;3.80;;;10.10;93.70;;;;;;11874316;29;20065;-84
2022/03/11 11:47:32;;;;;;;7.95;3.83;;;10.30;93.60;;;;;;11875346;29;20052;-82
2022/03/11 11:53:37;;;;;;;7.22;3.63;;;10.30;94.00;;;;;;11872527;29;20043;-83
2022/03/11 11:59:41;;;;;;;8.43;4.05;;;10.30;93.30;;;;;;11884877;29;20055;-84
2022/03/11 12:05:48;;;;;;;6.30;3.80;;;10.50;94.20;;;;;;11876338;29;20090;-84
2022/03/11 12:11:50;;;;;;;8.77;3.75;;;10.80;94.00;;;;;;11869305;29;20047;-84
2022/03/11 12:18:03;;;;;;;7.53;3.70;;;10.90;95.60;;;;;;11878174;29;20065;-83
2022/03/11 12:24:34;;;;;;;6.80;3.70;;;11.00;92.80;;;;;;11880945;29;20047;-84
2022/03/11 12:30:41;;;;;;;5.80;3.15;;;11.20;93.80;;;;;;11888246;29;20078;-82
2022/03/11 12:36:48;;;;;;;6.68;3.28;;;11.30;91.70;;;;;;11882185;29;20118;-84
2022/03/11 12:43:00;;;;;;;7.82;3.50;;;11.50;91.00;;;;;;11880492;29;20474;-84
2022/03/11 12:49:02;;;;;;;8.93;3.78;;;11.30;89.10;;;;;;11882535;29;20159;-83
2022/03/11 12:55:25;;;;;;;8.80;4.03;;;11.20;89.60;;;;;;11889904;29;20466;-83
2022/03/11 13:01:27;;;;;;;5.80;3.28;;;11.40;91.00;;;;;;11897220;29;20063;-83
2022/03/11 13:07:30;;;;;;;7.65;3.80;;;11.40;88.60;;;;;;11877628;29;20560;-84
2022/03/11 13:13:33;;;;;;;9.25;3.90;;;11.40;86.90;;;;;;11889517;29;20156;-84
2022/03/11 13:19:35;;;;;;;5.65;3.60;;;11.40;87.70;;;;;;11879918;29;20058;-84
2022/03/11 13:25:40;;;;;;;7.63;3.53;;;11.40;89.90;;;;;;11884377;29;20581;-83
2022/03/11 13:31:42;;;;;;;6.68;3.17;;;11.30;86.80;;;;;;11880047;29;20059;-83
2022/03/11 13:37:44;;;;;;;9.80;3.83;;;11.30;87.20;;;;;;11873322;29;20062;-85
2022/03/11 13:44:12;;;;;;;8.13;3.90;;;11.50;85.80;;;;;;11879647;29;20417;-84
2022/03/11 13:50:14;;;;;;;7.05;3.67;;;11.20;87.10;;;;;;11884704;29;20111;-84
2022/03/11 13:56:18;;;;;;;6.85;3.60;;;11.30;87.10;;;;;;11885250;29;20498;-83
2022/03/11 14:02:25;;;;;;;5.47;3.50;;;11.30;85.90;;;;;;11876499;29;20238;-84
2022/03/11 14:08:28;;;;;;;7.00;3.90;;;11.20;86.70;;;;;;11881589;29;20104;-83
2022/03/11 14:14:31;;;;;;;11.30;4.88;;;11.20;86.10;;;;;;11874750;29;20086;-84
2022/03/11 14:20:33;;;;;;;9.27;3.55;;;11.20;90.00;;;;;;11875904;29;20123;-83
2022/03/11 14:26:35;;;;;;;8.00;4.15;;;11.20;88.30;;;;;;11887960;29;20763;-84
2022/03/11 14:32:37;;;;;;;7.60;4.20;;;11.10;88.30;;;;;;11872943;29;20065;-84
2022/03/11 14:38:42;;;;;;;6.70;3.97;;;11.20;91.70;;;;;;11888954;29;20084;-83
2022/03/11 14:44:44;;;;;;;7.40;4.20;;;11.00;91.30;;;;;;11876185;29;20051;-83
2022/03/11 14:50:46;;;;;;;9.57;4.65;;;11.00;91.30;;;;;;11877453;29;20112;-84
2022/03/11 14:56:49;;;;;;;7.28;4.30;;;11.00;93.30;;;;;;11872337;29;20055;-83
2022/03/11 15:02:51;;;;;;;10.45;4.80;;;10.80;92.60;;;;;;11874756;29;20063;-83
2022/03/11 15:08:54;;;;;;;10.60;4.50;;;10.60;92.60;;;;;;11874294;29;20142;-83
2022/03/11 15:14:56;;;;;;;13.35;4.65;;;10.70;92.90;;;;;;11872017;29;20055;-84
2022/03/11 15:20:58;;;;;;;14.77;4.90;;;10.70;93.00;;;;;;11871022;29;20130;-84
2022/03/11 15:27:02;;;;;;;10.90;4.80;;;10.70;93.80;;;;;;11872601;29;20063;-83
2022/03/11 15:33:04;;;;;;;8.80;4.80;;;10.70;91.70;;;;;;11871048;29;20634;-83
2022/03/11 15:39:06;;;;;;;10.18;5.43;;;10.70;94.00;;;;;;11869436;29;20111;-83
2022/03/11 15:45:08;;;;;;;9.93;5.93;;;10.50;94.80;;;;;;11866547;29;20483;-83
2022/03/11 15:51:11;;;;;;;13.02;5.00;;;10.40;94.00;;;;;;11873893;29;20106;-84
2022/03/11 15:57:13;;;;;;;9.00;4.85;;;10.30;94.80;;;;;;11875561;29;20069;-82
2022/03/11 16:03:15;;;;;;;11.75;4.60;;;10.20;93.70;;;;;;11888744;29;20171;-83
2022/03/11 16:09:17;;;;;;;9.27;4.53;;;10.10;94.30;;;;;;11880777;29;20142;-83
2022/03/11 16:15:19;;;;;;;11.63;4.70;;;9.90;94.40;;;;;;11882300;29;20059;-82
2022/03/11 16:21:21;;;;;;;14.45;4.75;;;9.80;94.40;;;;;;11880840;29;20082;-82
2022/03/11 16:27:23;;;;;;;13.85;5.38;;;9.70;95.80;;;;;;11883469;29;20115;-83
2022/03/11 16:33:26;;;;;;;9.32;4.97;;;9.50;95.10;;;;;;11884944;29;20090;-82
2022/03/11 16:39:28;;;;;;;14.27;5.15;;;9.40;97.20;;;;;;11881204;29;20478;-83
2022/03/11 16:45:31;;;;;;;8.70;4.55;;;9.20;95.00;;;;;;11879536;29;20512;-83
2022/03/11 16:51:33;;;;;;;14.27;5.15;;;9.10;94.70;;;;;;11876843;29;20062;-83
2022/03/11 16:57:35;;;;;;;13.70;5.30;;;9.10;94.50;;;;;;11888586;29;20062;-83
2022/03/11 17:03:37;;;;;;;10.00;4.93;;;8.90;95.20;;;;;;11882005;29;20055;-82
2022/03/11 17:09:39;;;;;;;10.13;4.70;;;8.90;95.00;;;;;;11882371;29;20062;-83
2022/03/11 17:15:41;;;;;;;8.57;4.65;;;8.80;94.30;;;;;;11879930;29;20063;-83
2022/03/11 17:21:43;;;;;;;10.32;4.65;;;8.70;94.20;;;;;;11878235;29;20565;-83
2022/03/11 17:27:45;;;;;;;7.70;3.78;;;8.60;94.40;;;;;;11876839;29;20107;-82
2022/03/11 17:33:47;;;;;;;11.13;4.68;;;8.50;94.50;;;;;;11878315;29;20817;-82
2022/03/11 17:39:54;;;;;;;10.20;4.75;;;8.50;95.20;;;;;;11891048;29;20055;-81
2022/03/11 17:45:56;;;;;;;9.70;4.22;;;8.30;94.80;;;;;;11877597;29;20062;-82
2022/03/11 17:52:01;;;;;;;12.40;4.53;;;8.30;95.00;;;;;;11878357;29;20062;-81
2022/03/11 17:58:04;;;;;;;10.13;4.63;;;8.10;95.00;;;;;;11875193;29;20146;-81
2022/03/11 18:04:07;;;;;;;10.77;4.15;;;8.10;94.30;;;;;;11874213;29;20057;-82
2022/03/11 18:10:12;;;;;;;12.05;4.10;;;8.10;95.00;;;;;;11876714;29;20108;-82
2022/03/11 18:16:14;;;;;;;8.25;3.45;;;8.00;95.30;;;;;;11874825;29;20062;-82
2022/03/11 18:22:17;;;;;;;8.57;3.70;;;8.10;94.80;;;;;;11879489;29;20108;-82
2022/03/11 18:28:20;;;;;;;9.73;3.75;;;8.10;93.80;;;;;;11874271;29;20055;-82
2022/03/11 18:34:23;;;;;;;10.55;3.35;;;8.10;94.40;;;;;;11872962;29;20548;-82
2022/03/11 18:40:25;;;;;;;13.63;3.78;;;8.10;93.80;;;;;;11872396;29;20058;-82
2022/03/11 18:46:26;;;;;;;12.63;4.10;;;7.90;94.40;;;;;;11885156;29;20065;-82
2022/03/11 18:52:28;;;;;;;8.50;4.13;;;7.90;93.80;;;;;;11874335;29;20602;-81
2022/03/11 18:58:30;;;;;;;10.75;4.05;;;7.80;94.30;;;;;;11875736;29;20742;-81
2022/03/11 19:04:32;;;;;;;12.45;5.15;;;7.80;93.60;;;;;;11871525;29;20561;-82
2022/03/11 19:10:37;;;;;;;7.43;3.97;;;7.90;93.70;;;;;;11869447;29;20126;-82
2022/03/11 19:16:38;;;;;;;10.48;4.32;;;8.00;93.40;;;;;;11871537;29;20139;-82
2022/03/11 19:22:40;;;;;;;7.05;4.10;;;7.90;93.30;;;;;;11874167;29;20054;-81
2022/03/11 19:28:44;;;;;;;11.52;4.43;;;7.90;93.40;;;;;;11868678;29;21210;-81
2022/03/11 19:34:46;;;;;;;11.93;5.33;;;7.80;93.60;;;;;;11876362;29;20485;-81
2022/03/11 19:40:52;;;;;;;10.95;4.90;;;7.80;93.60;;;;;;11881127;29;20159;-81
2022/03/11 19:46:54;;;;;;;8.35;4.20;;;7.60;94.00;;;;;;11881147;29;20065;-81
2022/03/11 19:52:58;;;;;;;11.93;4.35;;;7.70;93.90;;;;;;11881217;29;20059;-82
2022/03/11 19:59:02;;;;;;;8.93;4.47;;;7.60;94.00;;;;;;11884005;29;20092;-82
2022/03/11 20:05:05;;;;;;;10.27;4.47;;;7.60;93.80;;;;;;11899587;29;20107;-82
2022/03/11 20:11:08;;;;;;;8.57;4.45;;;7.50;94.20;;;;;;11887819;29;20111;-82
2022/03/11 20:17:11;;;;;;;8.55;4.32;;;7.50;93.80;;;;;;11893023;29;20059;-82
2022/03/11 20:23:15;;;;;;;7.20;4.07;;;7.70;93.50;;;;;;11877433;29;20103;-82
2022/03/11 20:29:17;;;;;;;11.23;4.38;;;7.70;93.50;;;;;;11875782;29;20046;-82
2022/03/11 20:35:19;;;;;;;7.28;4.22;;;7.60;93.70;;;;;;11874965;29;20059;-82
2022/03/11 20:41:21;;;;;;;11.60;5.05;;;7.80;93.10;;;;;;11882625;29;20059;-82
2022/03/11 20:47:23;;;;;;;9.40;4.72;;;7.70;92.70;;;;;;11875558;29;20055;-82
2022/03/11 20:53:26;;;;;;;10.13;4.00;;;7.60;92.90;;;;;;11884750;29;20116;-82
2022/03/11 20:59:28;;;;;;;9.32;4.10;;;7.50;92.70;;;;;;11883522;29;20547;-81
2022/03/11 21:05:30;;;;;;;9.82;4.43;;;7.40;93.30;;;;;;11872341;29;20059;-82
2022/03/11 21:11:35;;;;;;;10.52;4.63;;;7.50;93.00;;;;;;11875591;29;20141;-80
2022/03/11 21:17:38;;;;;;;7.90;4.07;;;7.30;93.20;;;;;;11871812;29;20057;-82
2022/03/11 21:23:40;;;;;;;6.55;3.60;;;7.40;92.80;;;;;;11878684;29;20059;-83
2022/03/11 21:29:42;;;;;;;6.25;3.88;;;7.30;93.00;;;;;;11883810;29;20063;-82
2022/03/11 21:35:45;;;;;;;7.80;4.20;;;7.30;92.20;;;;;;11875306;29;20123;-82
2022/03/11 21:41:47;;;;;;;6.53;4.00;;;7.40;92.50;;;;;;11873502;29;20055;-81
2022/03/11 21:47:50;;;;;;;10.40;4.53;;;7.30;92.50;;;;;;11886923;29;20059;-82
2022/03/11 21:53:54;;;;;;;10.73;3.75;;;7.50;91.50;;;;;;11875870;29;20086;-83
2022/03/11 21:59:56;;;;;;;6.77;3.77;;;7.40;91.70;;;;;;11878730;29;20063;-82
2022/03/11 22:05:58;;;;;;;9.25;3.95;;;7.50;91.20;;;;;;11875996;29;20095;-82
2022/03/11 22:12:00;;;;;;;10.25;3.72;;;7.40;91.70;;;;;;11882750;29;20189;-83
2022/03/11 22:18:02;;;;;;;7.35;3.70;;;7.40;91.10;;;;;;11876418;29;20085;-82
2022/03/11 22:24:05;;;;;;;5.88;3.67;;;7.20;91.20;;;;;;11871567;29;20059;-82
2022/03/11 22:30:09;;;;;;;8.05;3.83;;;7.10;91.60;;;;;;11873050;29;20482;-81
2022/03/11 22:36:11;;;;;;;6.87;3.60;;;7.10;90.60;;;;;;11875116;29;20084;-81
2022/03/11 22:42:15;;;;;;;6.65;3.70;;;6.90;90.90;;;;;;11872175;29;20055;-81
2022/03/11 22:48:18;;;;;;;8.40;3.45;;;6.90;91.10;;;;;;11873283;29;20864;-81
2022/03/11 22:54:25;;;;;;;9.05;3.42;;;6.90;90.30;;;;;;11870980;29;20077;-82
2022/03/11 23:00:44;;;;;;;10.93;3.70;;;6.80;90.40;;;;;;11879793;29;20055;-82
2022/03/11 23:13:08;;;;;;;7.28;3.67;;;6.60;90.40;;;;;;11874070;29;20054;-82
2022/03/11 23:19:10;;;;;;;7.75;3.35;;;6.60;90.30;;;;;;11875071;29;20646;-81
2022/03/11 23:25:12;;;;;;;8.27;3.85;;;6.50;91.00;;;;;;11869594;29;20051;-81
2022/03/11 23:31:14;;;;;;;5.18;2.90;;;6.40;90.30;;;;;;11882713;29;20051;-80
2022/03/11 23:37:20;;;;;;;6.88;3.50;;;6.30;90.50;;;;;;11872369;29;20835;-81
2022/03/11 23:43:24;;;;;;;6.85;3.33;;;6.20;90.40;;;;;;11871266;29;20574;-82
2022/03/11 23:49:26;;;;;;;5.68;2.90;;;6.10;90.40;;;;;;11870150;29;20115;-82
2022/03/11 23:55:28;;;;;;;6.63;3.42;;;6.10;90.30;;;;;;11867207;29;20775;-81
